Terminal Aerodrome Forecast
Issued by NWS

Home | Current Version | Previous Version | Text Only | Print | Product List | Glossary On
Versions: 1 2 3 4 5 6 7 8 9 10 11 12 13 14 15 16 17 18 19 20 21 22 23 24 25 26 27 28 29 30 31 32 33 34 35 36 37 38 39 40 41 42 43 44
000
FTUS43 KDTX 221100
TAFYIP
TAF
KYIP 221120Z 2212/2312 VRB03KT 3SM BR OVC004
     FM221300 08005KT 6SM BR BKN006
     FM221500 08005KT P6SM SCT015 BKN070
     FM221900 14005KT P6SM SCT030 BKN050
     FM230100 08005KT P6SM SCT050 BKN120 OVC250
     FM230700 05005KT 4SM BR FEW015 SCT120=

USA.gov is the U.S. government's official web portal to all federal, state and local government web resources and services.